Decoded Metar for OIKB (BANDAR ABBAS in IRAN) (IATA:BND) | Meteo·Mobile Aviation Weather
aviador You're here:

OIKB Decoded Metar

BANDAR ABBAS in IRAN
Report Time2018-08-20 01:00:00
UTC Time2018-08-20 01:26:31
Flight Rules ifr IFR
Wind030° at 06 kt
W.Decomp.*RWY 03: 6.0 kt HW 0.1 kt LCW
W.Rank030° ranks 9
Current wind is above 030° avg. (5.7)
Visibility4000 m
Phenomena:Mist
Clouds:Few 030 Hf
Expected CloudBase > 1,200 ft AGL from Temp-Dew spread
CeilingNone
Temp31°C (ISA +16)
Dew Point28°C (84% RH)
Heat Index42.3°C
QNH0997 hPa
Density Alt2,907 ft
Elevation33 ft
Report Wrong Elevation
Raw Report
OIKB 200100Z 03006KT 4000 BR FEW030 31/28 Q0997 A2946=

Extra information for OIKB:More info

Metar Taf Metar & Taf Last 4 Metars F.Rules Stats Wind Profile Meteogram Temp Stats Airport Information Weather charts Add Link Nearby VenuesMetar ALERT Operation Metar Decoded Social comments